sensor_id;sensor_type;location;lat;lon;timestamp;pressure;altitude;pressure_sealevel;temperature;humidity
36234;BME280;43467;50.890;5.982;2023-03-14T00:00:36;97825.69;;;11.46;83.19
36234;BME280;43467;50.890;5.982;2023-03-14T00:03:01;97819.72;;;11.13;91.13
36234;BME280;43467;50.890;5.982;2023-03-14T00:05:27;97806.47;;;10.83;90.74
36234;BME280;43467;50.890;5.982;2023-03-14T00:07:52;97789.09;;;10.49;90.79
36234;BME280;43467;50.890;5.982;2023-03-14T00:10:18;97822.06;;;10.45;92.52
36234;BME280;43467;50.890;5.982;2023-03-14T00:12:44;97826.69;;;10.32;93.84
36234;BME280;43467;50.890;5.982;2023-03-14T00:15:10;97813.16;;;10.25;95.61
36234;BME280;43467;50.890;5.982;2023-03-14T00:17:36;97831.88;;;10.33;96.11
36234;BME280;43467;50.890;5.982;2023-03-14T00:20:04;97829.13;;;10.23;94.89
36234;BME280;43467;50.890;5.982;2023-03-14T00:22:39;97827.97;;;10.16;95.06
36234;BME280;43467;50.890;5.982;2023-03-14T00:25:06;97843.78;;;10.27;96.96
36234;BME280;43467;50.890;5.982;2023-03-14T00:27:32;97841.88;;;10.30;96.68
36234;BME280;43467;50.890;5.982;2023-03-14T00:29:58;97830.81;;;10.24;96.51
36234;BME280;43467;50.890;5.982;2023-03-14T00:32:23;97830.91;;;10.34;96.62
36234;BME280;43467;50.890;5.982;2023-03-14T00:34:49;97833.19;;;10.39;96.23
36234;BME280;43467;50.890;5.982;2023-03-14T00:37:15;97825.09;;;10.40;95.51
36234;BME280;43467;50.890;5.982;2023-03-14T00:39:40;97826.53;;;10.44;95.73
36234;BME280;43467;50.890;5.982;2023-03-14T00:42:06;97806.22;;;10.45;96.03
36234;BME280;43467;50.890;5.982;2023-03-14T00:44:31;97813.94;;;10.37;95.38
36234;BME280;43467;50.890;5.982;2023-03-14T00:46:57;97830.66;;;10.37;95.38
36234;BME280;43467;50.890;5.982;2023-03-14T00:49:23;97796.44;;;10.24;94.64
36234;BME280;43467;50.890;5.982;2023-03-14T00:51:48;97830.16;;;10.43;94.61
36234;BME280;43467;50.890;5.982;2023-03-14T00:54:13;97825.09;;;10.40;93.98
36234;BME280;43467;50.890;5.982;2023-03-14T00:56:39;97828.75;;;10.39;93.96
36234;BME280;43467;50.890;5.982;2023-03-14T00:59:04;97820.66;;;10.41;93.38
36234;BME280;43467;50.890;5.982;2023-03-14T01:01:30;97812.13;;;10.37;92.94
36234;BME280;43467;50.890;5.982;2023-03-14T01:03:55;97811.56;;;10.34;93.58
36234;BME280;43467;50.890;5.982;2023-03-14T01:06:23;97816.94;;;10.43;94.42
36234;BME280;43467;50.890;5.982;2023-03-14T01:08:49;97821.69;;;10.49;93.81
36234;BME280;43467;50.890;5.982;2023-03-14T01:11:23;97807.78;;;10.47;92.98
36234;BME280;43467;50.890;5.982;2023-03-14T01:13:50;97805.94;;;10.48;92.48
36234;BME280;43467;50.890;5.982;2023-03-14T01:16:16;97803.09;;;10.60;92.28
36234;BME280;43467;50.890;5.982;2023-03-14T01:18:44;97791.81;;;10.58;91.12
36234;BME280;43467;50.890;5.982;2023-03-14T01:21:25;97787.41;;;10.48;90.64
36234;BME280;43467;50.890;5.982;2023-03-14T01:23:53;97774.81;;;10.51;90.07
36234;BME280;43467;50.890;5.982;2023-03-14T01:26:21;97758.09;;;10.51;89.28
36234;BME280;43467;50.890;5.982;2023-03-14T01:28:48;97756.78;;;10.45;89.53
36234;BME280;43467;50.890;5.982;2023-03-14T01:31:15;97760.97;;;10.48;89.87
36234;BME280;43467;50.890;5.982;2023-03-14T01:33:41;97764.53;;;10.58;90.82
36234;BME280;43467;50.890;5.982;2023-03-14T01:36:08;97773.13;;;10.50;89.23
36234;BME280;43467;50.890;5.982;2023-03-14T01:38:35;97759.53;;;10.64;89.52
36234;BME280;43467;50.890;5.982;2023-03-14T01:41:01;97760.84;;;10.49;88.87
36234;BME280;43467;50.890;5.982;2023-03-14T01:43:27;97759.53;;;10.64;89.25
36234;BME280;43467;50.890;5.982;2023-03-14T01:51:36;97746.84;;;10.58;88.62
36234;BME280;43467;50.890;5.982;2023-03-14T01:54:11;97749.94;;;10.63;90.02
36234;BME280;43467;50.890;5.982;2023-03-14T01:56:38;97747.41;;;10.62;89.54
36234;BME280;43467;50.890;5.982;2023-03-14T01:59:06;97744.47;;;10.55;89.06
36234;BME280;43467;50.890;5.982;2023-03-14T02:01:34;97744.47;;;10.55;89.38
36234;BME280;43467;50.890;5.982;2023-03-14T02:04:02;97742.97;;;10.62;89.45
36234;BME280;43467;50.890;5.982;2023-03-14T02:06:46;97745.28;;;10.56;89.83
36234;BME280;43467;50.890;5.982;2023-03-14T02:09:13;97747.31;;;10.63;89.07
36234;BME280;43467;50.890;5.982;2023-03-14T02:11:39;97750.69;;;10.75;88.86
36234;BME280;43467;50.890;5.982;2023-03-14T02:14:05;97747.34;;;10.73;88.86
36234;BME280;43467;50.890;5.982;2023-03-14T02:16:31;97741.06;;;10.74;88.67
36234;BME280;43467;50.890;5.982;2023-03-14T02:18:56;97740.47;;;10.91;89.74
36234;BME280;43467;50.890;5.982;2023-03-14T02:24:17;97738.72;;;10.81;88.54
36234;BME280;43467;50.890;5.982;2023-03-14T02:27:06;97734.16;;;10.83;88.09
36234;BME280;43467;50.890;5.982;2023-03-14T02:29:33;97733.31;;;10.82;88.69
36234;BME280;43467;50.890;5.982;2023-03-14T02:32:01;97743.81;;;10.93;88.56
36234;BME280;43467;50.890;5.982;2023-03-14T02:34:27;97738.50;;;10.93;88.66
36234;BME280;43467;50.890;5.982;2023-03-14T02:36:53;97749.50;;;10.89;89.88
36234;BME280;43467;50.890;5.982;2023-03-14T02:39:29;97735.59;;;10.96;90.39
36234;BME280;43467;50.890;5.982;2023-03-14T02:41:57;97748.19;;;11.04;89.87
36234;BME280;43467;50.890;5.982;2023-03-14T02:44:22;97750.50;;;10.97;91.67
36234;BME280;43467;50.890;5.982;2023-03-14T02:46:47;97736.66;;;10.84;94.65
36234;BME280;43467;50.890;5.982;2023-03-14T02:49:14;97721.72;;;10.73;96.17
36234;BME280;43467;50.890;5.982;2023-03-14T02:51:40;97723.13;;;10.78;96.31
36234;BME280;43467;50.890;5.982;2023-03-14T02:54:07;97723.41;;;10.75;96.64
36234;BME280;43467;50.890;5.982;2023-03-14T02:56:32;97715.97;;;10.68;96.35
36234;BME280;43467;50.890;5.982;2023-03-14T02:58:58;97717.56;;;10.81;96.79
36234;BME280;43467;50.890;5.982;2023-03-14T03:01:24;97705.56;;;10.77;95.66
36234;BME280;43467;50.890;5.982;2023-03-14T03:03:49;97693.75;;;10.81;95.94
36234;BME280;43467;50.890;5.982;2023-03-14T03:06:15;97696.66;;;10.78;96.62
36234;BME280;43467;50.890;5.982;2023-03-14T03:08:40;97693.28;;;10.66;96.40
36234;BME280;43467;50.890;5.982;2023-03-14T03:11:06;97708.88;;;10.69;96.24
36234;BME280;43467;50.890;5.982;2023-03-14T03:13:32;97700.09;;;10.68;96.62
36234;BME280;43467;50.890;5.982;2023-03-14T03:15:57;97694.63;;;10.60;98.21
36234;BME280;43467;50.890;5.982;2023-03-14T03:18:22;97688.75;;;10.57;98.05
36234;BME280;43467;50.890;5.982;2023-03-14T03:20:48;97675.25;;;10.60;98.34
36234;BME280;43467;50.890;5.982;2023-03-14T03:23:13;97674.19;;;10.62;98.50
36234;BME280;43467;50.890;5.982;2023-03-14T03:25:39;97664.50;;;10.52;98.29
36234;BME280;43467;50.890;5.982;2023-03-14T03:28:04;97669.56;;;10.55;97.93
36234;BME280;43467;50.890;5.982;2023-03-14T03:30:37;97667.25;;;10.41;97.56
36234;BME280;43467;50.890;5.982;2023-03-14T03:33:03;97676.28;;;10.38;98.71
36234;BME280;43467;50.890;5.982;2023-03-14T03:35:28;97671.13;;;10.37;98.51
36234;BME280;43467;50.890;5.982;2023-03-14T03:37:54;97661.50;;;10.36;98.05
36234;BME280;43467;50.890;5.982;2023-03-14T03:40:19;97666.66;;;10.37;97.91
36234;BME280;43467;50.890;5.982;2023-03-14T03:42:44;97662.91;;;10.40;98.42
36234;BME280;43467;50.890;5.982;2023-03-14T03:45:10;97660.75;;;10.24;98.30
36234;BME280;43467;50.890;5.982;2023-03-14T03:47:35;97665.06;;;10.25;98.58
36234;BME280;43467;50.890;5.982;2023-03-14T03:50:01;97658.81;;;10.26;98.45
36234;BME280;43467;50.890;5.982;2023-03-14T03:52:26;97649.09;;;10.27;98.01
36234;BME280;43467;50.890;5.982;2023-03-14T03:54:51;97652.81;;;10.24;98.75
36234;BME280;43467;50.890;5.982;2023-03-14T03:57:17;97661.19;;;10.29;98.42
36234;BME280;43467;50.890;5.982;2023-03-14T03:59:42;97662.16;;;10.28;98.44
36234;BME280;43467;50.890;5.982;2023-03-14T04:02:07;97661.06;;;10.31;97.80
36234;BME280;43467;50.890;5.982;2023-03-14T04:04:33;97657.81;;;10.27;97.69
36234;BME280;43467;50.890;5.982;2023-03-14T04:06:59;97661.84;;;10.21;98.16
36234;BME280;43467;50.890;5.982;2023-03-14T04:09:24;97652.13;;;10.22;98.56
36234;BME280;43467;50.890;5.982;2023-03-14T04:11:50;97671.31;;;10.24;97.57
36234;BME280;43467;50.890;5.982;2023-03-14T04:14:15;97659.50;;;10.28;97.95
36234;BME280;43467;50.890;5.982;2023-03-14T04:16:40;97656.28;;;10.24;97.62
36234;BME280;43467;50.890;5.982;2023-03-14T04:19:06;97665.25;;;10.33;97.45
36234;BME280;43467;50.890;5.982;2023-03-14T04:21:32;97670.53;;;10.33;97.63
36234;BME280;43467;50.890;5.982;2023-03-14T04:23:57;97656.81;;;10.39;97.86
36234;BME280;43467;50.890;5.982;2023-03-14T04:26:22;97657.78;;;10.38;97.63
36234;BME280;43467;50.890;5.982;2023-03-14T04:28:48;97643.97;;;10.35;97.72
36234;BME280;43467;50.890;5.982;2023-03-14T04:31:16;97654.56;;;10.35;97.38
36234;BME280;43467;50.890;5.982;2023-03-14T04:33:42;97645.59;;;10.26;97.09
36234;BME280;43467;50.890;5.982;2023-03-14T04:36:08;97647.25;;;10.27;96.91
36234;BME280;43467;50.890;5.982;2023-03-14T04:38:34;97646.03;;;10.10;96.96
36234;BME280;43467;50.890;5.982;2023-03-14T04:40:59;97643.47;;;10.20;96.55
36234;BME280;43467;50.890;5.982;2023-03-14T04:43:26;97647.78;;;10.21;97.35
36234;BME280;43467;50.890;5.982;2023-03-14T04:45:55;97638.91;;;10.11;97.42
36234;BME280;43467;50.890;5.982;2023-03-14T04:48:22;97640.03;;;10.08;99.38
36234;BME280;43467;50.890;5.982;2023-03-14T04:50:48;97622.88;;;10.03;100.00
36234;BME280;43467;50.890;5.982;2023-03-14T04:53:14;97634.03;;;10.06;100.00
36234;BME280;43467;50.890;5.982;2023-03-14T04:55:40;97622.34;;;10.09;100.00
36234;BME280;43467;50.890;5.982;2023-03-14T04:58:05;97630.56;;;10.06;100.00
36234;BME280;43467;50.890;5.982;2023-03-14T05:00:31;97629.16;;;10.02;100.00
36234;BME280;43467;50.890;5.982;2023-03-14T05:02:56;97631.53;;;10.05;100.00
36234;BME280;43467;50.890;5.982;2023-03-14T05:05:22;97607.09;;;9.92;100.00
36234;BME280;43467;50.890;5.982;2023-03-14T05:07:47;97633.00;;;9.98;100.00
36234;BME280;43467;50.890;5.982;2023-03-14T05:10:13;97634.94;;;9.96;100.00
36234;BME280;43467;50.890;5.982;2023-03-14T05:12:38;97627.19;;;10.04;100.00
36234;BME280;43467;50.890;5.982;2023-03-14T05:15:04;97619.25;;;10.04;100.00
36234;BME280;43467;50.890;5.982;2023-03-14T05:17:32;97622.75;;;10.04;100.00
36234;BME280;43467;50.890;5.982;2023-03-14T05:19:57;97614.75;;;9.95;100.00
36234;BME280;43467;50.890;5.982;2023-03-14T05:22:23;97614.91;;;9.93;100.00
36234;BME280;43467;50.890;5.982;2023-03-14T05:24:48;97615.00;;;9.92;100.00
36234;BME280;43467;50.890;5.982;2023-03-14T05:27:13;97603.47;;;9.93;99.70
36234;BME280;43467;50.890;5.982;2023-03-14T05:29:39;97602.19;;;9.87;99.80
36234;BME280;43467;50.890;5.982;2023-03-14T05:32:04;97595.63;;;9.82;100.00
36234;BME280;43467;50.890;5.982;2023-03-14T05:34:30;97598.47;;;9.90;100.00
36234;BME280;43467;50.890;5.982;2023-03-14T05:36:55;97596.06;;;9.87;99.55
36234;BME280;43467;50.890;5.982;2023-03-14T05:39:21;97585.75;;;9.84;99.61
36234;BME280;43467;50.890;5.982;2023-03-14T05:41:47;97593.41;;;9.87;99.64
36234;BME280;43467;50.890;5.982;2023-03-14T05:44:12;97586.78;;;9.92;99.66
36234;BME280;43467;50.890;5.982;2023-03-14T05:46:37;97589.25;;;9.84;99.65
36234;BME280;43467;50.890;5.982;2023-03-14T05:49:03;97603.75;;;9.90;99.95
36234;BME280;43467;50.890;5.982;2023-03-14T05:51:28;97588.97;;;9.87;100.00
36234;BME280;43467;50.890;5.982;2023-03-14T05:53:53;97587.63;;;9.93;99.76
36234;BME280;43467;50.890;5.982;2023-03-14T05:56:54;97588.13;;;9.87;99.66
36234;BME280;43467;50.890;5.982;2023-03-14T05:59:20;97590.66;;;9.88;100.00
36234;BME280;43467;50.890;5.982;2023-03-14T06:01:45;97594.22;;;9.98;100.00
36234;BME280;43467;50.890;5.982;2023-03-14T06:04:11;97592.38;;;9.99;100.00
36234;BME280;43467;50.890;5.982;2023-03-14T06:06:36;97590.38;;;9.91;100.00
36234;BME280;43467;50.890;5.982;2023-03-14T06:09:02;97600.56;;;9.96;100.00
36234;BME280;43467;50.890;5.982;2023-03-14T06:11:27;97598.84;;;10.06;100.00
36234;BME280;43467;50.890;5.982;2023-03-14T06:13:53;97600.50;;;10.07;100.00
36234;BME280;43467;50.890;5.982;2023-03-14T06:16:18;97587.94;;;9.99;100.00
36234;BME280;43467;50.890;5.982;2023-03-14T06:18:43;97596.03;;;10.07;100.00
36234;BME280;43467;50.890;5.982;2023-03-14T06:21:11;97604.81;;;10.08;100.00
36234;BME280;43467;50.890;5.982;2023-03-14T06:23:36;97593.59;;;10.15;100.00
36234;BME280;43467;50.890;5.982;2023-03-14T06:26:02;97597.72;;;10.08;100.00
36234;BME280;43467;50.890;5.982;2023-03-14T06:28:28;97597.59;;;10.10;100.00
36234;BME280;43467;50.890;5.982;2023-03-14T06:30:53;97601.78;;;10.12;100.00
36234;BME280;43467;50.890;5.982;2023-03-14T06:33:18;97603.78;;;9.99;100.00
36234;BME280;43467;50.890;5.982;2023-03-14T06:35:44;97592.25;;;10.00;100.00
36234;BME280;43467;50.890;5.982;2023-03-14T06:38:09;97605.66;;;10.08;100.00
36234;BME280;43467;50.890;5.982;2023-03-14T06:40:35;97609.47;;;10.15;100.00
36234;BME280;43467;50.890;5.982;2023-03-14T06:43:00;97619.53;;;10.21;100.00
36234;BME280;43467;50.890;5.982;2023-03-14T06:45:26;97603.78;;;9.99;100.00
36234;BME280;43467;50.890;5.982;2023-03-14T06:47:51;97587.53;;;10.04;100.00
36234;BME280;43467;50.890;5.982;2023-03-14T06:50:16;97614.09;;;10.23;100.00
36234;BME280;43467;50.890;5.982;2023-03-14T06:52:42;97617.19;;;10.28;100.00
36234;BME280;43467;50.890;5.982;2023-03-14T06:55:16;97617.06;;;10.30;100.00
36234;BME280;43467;50.890;5.982;2023-03-14T06:57:41;97616.53;;;10.36;100.00
36234;BME280;43467;50.890;5.982;2023-03-14T07:00:09;97611.50;;;10.33;99.79
36234;BME280;43467;50.890;5.982;2023-03-14T07:02:35;97623.50;;;10.37;99.96
36234;BME280;43467;50.890;5.982;2023-03-14T07:05:01;97626.03;;;10.38;99.61
36234;BME280;43467;50.890;5.982;2023-03-14T07:07:27;97626.53;;;10.32;99.94
36234;BME280;43467;50.890;5.982;2023-03-14T07:09:52;97627.66;;;10.30;99.67
36234;BME280;43467;50.890;5.982;2023-03-14T07:12:18;97628.94;;;10.35;100.00
36234;BME280;43467;50.890;5.982;2023-03-14T07:14:43;97629.38;;;10.40;100.00
36234;BME280;43467;50.890;5.982;2023-03-14T07:17:09;97633.69;;;10.41;99.42
36234;BME280;43467;50.890;5.982;2023-03-14T07:19:34;97643.31;;;10.42;98.90
36234;BME280;43467;50.890;5.982;2023-03-14T07:22:00;97650.59;;;10.50;99.32
36234;BME280;43467;50.890;5.982;2023-03-14T07:24:25;97654.84;;;10.41;98.89
36234;BME280;43467;50.890;5.982;2023-03-14T07:26:50;97650.47;;;10.51;99.18
36234;BME280;43467;50.890;5.982;2023-03-14T07:29:16;97647.56;;;10.64;98.48
36234;BME280;43467;50.890;5.982;2023-03-14T07:31:41;97659.44;;;10.69;97.64
36234;BME280;43467;50.890;5.982;2023-03-14T07:34:06;97652.28;;;10.60;98.32
36234;BME280;43467;50.890;5.982;2023-03-14T07:36:32;97653.84;;;10.63;98.22
36234;BME280;43467;50.890;5.982;2023-03-14T07:38:57;97659.44;;;10.69;98.24
36234;BME280;43467;50.890;5.982;2023-03-14T07:41:23;97661.25;;;10.69;97.43
36234;BME280;43467;50.890;5.982;2023-03-14T07:43:49;97668.78;;;10.73;96.89
36234;BME280;43467;50.890;5.982;2023-03-14T07:46:14;97679.66;;;10.80;97.18
36234;BME280;43467;50.890;5.982;2023-03-14T07:48:40;97683.19;;;10.90;96.90
36234;BME280;43467;50.890;5.982;2023-03-14T07:51:06;97669.56;;;10.95;96.43
36234;BME280;43467;50.890;5.982;2023-03-14T07:53:31;97673.00;;;10.86;96.43
36234;BME280;43467;50.890;5.982;2023-03-14T07:55:56;97681.75;;;10.77;97.50
36234;BME280;43467;50.890;5.982;2023-03-14T07:58:22;97679.38;;;10.73;98.51
36234;BME280;43467;50.890;5.982;2023-03-14T08:00:48;97689.00;;;10.75;100.00
36234;BME280;43467;50.890;5.982;2023-03-14T08:03:14;97692.16;;;10.68;100.00
36234;BME280;43467;50.890;5.982;2023-03-14T08:05:39;97705.38;;;10.68;100.00
36234;BME280;43467;50.890;5.982;2023-03-14T08:08:06;97700.63;;;10.62;100.00
36234;BME280;43467;50.890;5.982;2023-03-14T08:10:31;97702.66;;;10.49;100.00
36234;BME280;43467;50.890;5.982;2023-03-14T08:12:58;97708.50;;;10.53;99.50
36234;BME280;43467;50.890;5.982;2023-03-14T08:15:25;97712.66;;;10.46;98.93
36234;BME280;43467;50.890;5.982;2023-03-14T08:17:50;97711.72;;;10.56;99.73
36234;BME280;43467;50.890;5.982;2023-03-14T08:20:20;97714.38;;;10.56;100.00
36234;BME280;43467;50.890;5.982;2023-03-14T08:22:46;97711.44;;;10.50;100.00
36234;BME280;43467;50.890;5.982;2023-03-14T08:25:12;97724.56;;;10.61;100.00
36234;BME280;43467;50.890;5.982;2023-03-14T08:27:37;97726.13;;;10.63;100.00
36234;BME280;43467;50.890;5.982;2023-03-14T08:30:05;97733.03;;;10.76;99.95
36234;BME280;43467;50.890;5.982;2023-03-14T08:32:31;97728.81;;;10.73;99.68
36234;BME280;43467;50.890;5.982;2023-03-14T08:34:57;97715.28;;;10.66;99.47
36234;BME280;43467;50.890;5.982;2023-03-14T08:37:22;97737.88;;;10.70;99.89
36234;BME280;43467;50.890;5.982;2023-03-14T08:39:49;97731.56;;;10.41;99.70
36234;BME280;43467;50.890;5.982;2023-03-14T08:42:14;97841.72;;;10.31;98.74
36234;BME280;43467;50.890;5.982;2023-03-14T08:44:40;97918.28;;;9.45;92.21
36234;BME280;43467;50.890;5.982;2023-03-14T08:47:05;97857.13;;;8.94;92.29
36234;BME280;43467;50.890;5.982;2023-03-14T08:49:31;97879.59;;;8.65;93.51
36234;BME280;43467;50.890;5.982;2023-03-14T08:51:56;97933.84;;;8.45;92.65
36234;BME280;43467;50.890;5.982;2023-03-14T08:54:21;97869.13;;;8.28;94.13
36234;BME280;43467;50.890;5.982;2023-03-14T08:56:47;97927.13;;;8.28;94.75
36234;BME280;43467;50.890;5.982;2023-03-14T08:59:12;97977.09;;;8.06;98.35
36234;BME280;43467;50.890;5.982;2023-03-14T09:01:37;97921.84;;;8.05;100.00
36234;BME280;43467;50.890;5.982;2023-03-14T09:04:03;97913.25;;;7.90;97.58
36234;BME280;43467;50.890;5.982;2023-03-14T09:06:28;97948.38;;;7.78;98.79
36234;BME280;43467;50.890;5.982;2023-03-14T09:08:54;97962.25;;;7.92;97.09
36234;BME280;43467;50.890;5.982;2023-03-14T09:11:19;97980.28;;;7.86;97.92
36234;BME280;43467;50.890;5.982;2023-03-14T09:13:45;97993.78;;;7.81;98.78
36234;BME280;43467;50.890;5.982;2023-03-14T09:16:10;98002.63;;;7.80;99.94
36234;BME280;43467;50.890;5.982;2023-03-14T09:18:36;98018.84;;;7.87;100.00
36234;BME280;43467;50.890;5.982;2023-03-14T09:21:01;98026.66;;;7.88;99.51
36234;BME280;43467;50.890;5.982;2023-03-14T09:23:27;98045.09;;;7.88;99.48
36234;BME280;43467;50.890;5.982;2023-03-14T09:25:57;98046.47;;;7.94;98.55
36234;BME280;43467;50.890;5.982;2023-03-14T09:28:22;98040.03;;;7.85;96.24
36234;BME280;43467;50.890;5.982;2023-03-14T09:30:48;98078.72;;;7.72;95.62
36234;BME280;43467;50.890;5.982;2023-03-14T09:33:15;98075.97;;;7.74;96.00
36234;BME280;43467;50.890;5.982;2023-03-14T09:35:40;98075.97;;;7.61;95.38
36234;BME280;43467;50.890;5.982;2023-03-14T09:38:06;98097.47;;;7.80;95.73
36234;BME280;43467;50.890;5.982;2023-03-14T09:40:34;98091.03;;;7.72;95.22
36234;BME280;43467;50.890;5.982;2023-03-14T09:43:00;98101.34;;;7.87;95.50
36234;BME280;43467;50.890;5.982;2023-03-14T09:45:37;98119.16;;;7.71;95.95
36234;BME280;43467;50.890;5.982;2023-03-14T09:48:06;98131.06;;;7.64;97.60
36234;BME280;43467;50.890;5.982;2023-03-14T09:50:42;98151.91;;;7.67;97.90
36234;BME280;43467;50.890;5.982;2023-03-14T09:53:18;98163.72;;;7.74;97.64
36234;BME280;43467;50.890;5.982;2023-03-14T09:55:49;98169.19;;;7.71;97.44
36234;BME280;43467;50.890;5.982;2023-03-14T09:58:20;98166.47;;;7.73;98.15
36234;BME280;43467;50.890;5.982;2023-03-14T10:00:46;98170.59;;;7.77;99.02
36234;BME280;43467;50.890;5.982;2023-03-14T10:05:38;98189.81;;;8.04;98.36
36234;BME280;43467;50.890;5.982;2023-03-14T10:08:04;98188.75;;;8.07;98.54
36234;BME280;43467;50.890;5.982;2023-03-14T10:10:30;98185.06;;;8.09;98.46
36234;BME280;43467;50.890;5.982;2023-03-14T10:13:14;98213.44;;;8.06;96.96
36234;BME280;43467;50.890;5.982;2023-03-14T10:15:40;98215.72;;;7.98;96.77
36234;BME280;43467;50.890;5.982;2023-03-14T10:18:11;98218.38;;;8.10;95.69
36234;BME280;43467;50.890;5.982;2023-03-14T10:20:43;98213.63;;;8.03;94.70
36234;BME280;43467;50.890;5.982;2023-03-14T10:25:39;98235.66;;;8.02;96.53
36234;BME280;43467;50.890;5.982;2023-03-14T10:28:09;98232.44;;;7.84;97.20
36234;BME280;43467;50.890;5.982;2023-03-14T10:30:47;98242.28;;;7.94;98.45
36234;BME280;43467;50.890;5.982;2023-03-14T10:33:34;98251.78;;;7.70;97.85
36234;BME280;43467;50.890;5.982;2023-03-14T10:36:21;98267.22;;;7.76;98.05
36234;BME280;43467;50.890;5.982;2023-03-14T10:38:48;98269.19;;;7.73;97.54
36234;BME280;43467;50.890;5.982;2023-03-14T10:41:19;98311.91;;;7.78;98.70
36234;BME280;43467;50.890;5.982;2023-03-14T10:43:54;98291.78;;;7.63;99.75
36234;BME280;43467;50.890;5.982;2023-03-14T10:46:23;98300.31;;;7.80;100.00
36234;BME280;43467;50.890;5.982;2023-03-14T10:48:51;98319.19;;;7.60;99.89
36234;BME280;43467;50.890;5.982;2023-03-14T10:53:45;98331.41;;;7.88;96.83
36234;BME280;43467;50.890;5.982;2023-03-14T10:56:22;98347.91;;;8.04;95.55
36234;BME280;43467;50.890;5.982;2023-03-14T10:58:49;98349.66;;;7.91;93.54
36234;BME280;43467;50.890;5.982;2023-03-14T11:07:07;98352.00;;;7.95;93.84
36234;BME280;43467;50.890;5.982;2023-03-14T11:12:36;98373.81;;;8.24;92.64
36234;BME280;43467;50.890;5.982;2023-03-14T11:20:45;98391.53;;;8.22;90.84
36234;BME280;43467;50.890;5.982;2023-03-14T11:23:25;98395.22;;;8.20;89.70
36234;BME280;43467;50.890;5.982;2023-03-14T11:26:20;98407.25;;;8.24;87.00
36234;BME280;43467;50.890;5.982;2023-03-14T11:28:57;98433.59;;;7.97;87.88
36234;BME280;43467;50.890;5.982;2023-03-14T11:31:29;98474.47;;;7.90;87.69
36234;BME280;43467;50.890;5.982;2023-03-14T11:36:58;98490.56;;;7.71;90.96
36234;BME280;43467;50.890;5.982;2023-03-14T11:39:26;98523.75;;;7.60;94.08
36234;BME280;43467;50.890;5.982;2023-03-14T11:41:57;98525.16;;;7.51;93.42
36234;BME280;43467;50.890;5.982;2023-03-14T11:44:33;98526.66;;;7.41;94.44
36234;BME280;43467;50.890;5.982;2023-03-14T11:47:07;98532.53;;;7.16;95.29
36234;BME280;43467;50.890;5.982;2023-03-14T11:52:29;98560.50;;;7.03;94.06
36234;BME280;43467;50.890;5.982;2023-03-14T11:57:40;98558.91;;;7.00;93.48
36234;BME280;43467;50.890;5.982;2023-03-14T12:02:49;98560.13;;;7.25;93.21
36234;BME280;43467;50.890;5.982;2023-03-14T12:10:56;98602.13;;;7.26;90.88
36234;BME280;43467;50.890;5.982;2023-03-14T12:13:28;98583.22;;;7.20;91.54
36234;BME280;43467;50.890;5.982;2023-03-14T12:15:57;98595.06;;;7.27;91.80
36234;BME280;43467;50.890;5.982;2023-03-14T12:21:00;98600.59;;;7.52;91.39
36234;BME280;43467;50.890;5.982;2023-03-14T12:23:26;98610.31;;;7.66;90.45
36234;BME280;43467;50.890;5.982;2023-03-14T12:28:37;98641.03;;;7.51;88.79
36234;BME280;43467;50.890;5.982;2023-03-14T12:46:57;98700.66;;;7.07;82.02
36234;BME280;43467;50.890;5.982;2023-03-14T12:49:30;98692.16;;;7.01;83.54
36234;BME280;43467;50.890;5.982;2023-03-14T12:52:00;98691.47;;;6.82;82.64
36234;BME280;43467;50.890;5.982;2023-03-14T12:57:29;98708.28;;;6.95;82.75
36234;BME280;43467;50.890;5.982;2023-03-14T12:59:59;98721.63;;;6.92;86.82
36234;BME280;43467;50.890;5.982;2023-03-14T13:02:28;98722.97;;;6.99;87.38
36234;BME280;43467;50.890;5.982;2023-03-14T13:05:13;98728.41;;;7.12;88.11
36234;BME280;43467;50.890;5.982;2023-03-14T13:15:35;98740.28;;;6.88;85.70
36234;BME280;43467;50.890;5.982;2023-03-14T13:18:11;98795.28;;;6.92;85.69
36234;BME280;43467;50.890;5.982;2023-03-14T13:20:45;98805.97;;;6.89;82.53
36234;BME280;43467;50.890;5.982;2023-03-14T13:23:29;98816.22;;;6.61;82.62
36234;BME280;43467;50.890;5.982;2023-03-14T13:25:55;98813.94;;;6.55;83.31
36234;BME280;43467;50.890;5.982;2023-03-14T13:28:21;98821.22;;;6.50;84.56
36234;BME280;43467;50.890;5.982;2023-03-14T13:30:49;98828.88;;;6.54;84.54
36234;BME280;43467;50.890;5.982;2023-03-14T13:33:17;98827.84;;;6.57;84.34
36234;BME280;43467;50.890;5.982;2023-03-14T13:35:49;98819.03;;;6.58;85.51
36234;BME280;43467;50.890;5.982;2023-03-14T13:38:19;98822.56;;;6.74;84.71
36234;BME280;43467;50.890;5.982;2023-03-14T13:40:46;98826.06;;;6.90;86.63
36234;BME280;43467;50.890;5.982;2023-03-14T13:45:55;98837.91;;;7.15;85.00
36234;BME280;43467;50.890;5.982;2023-03-14T13:48:22;98850.00;;;7.34;86.60
36234;BME280;43467;50.890;5.982;2023-03-14T13:50:52;98852.22;;;7.42;83.17
36234;BME280;43467;50.890;5.982;2023-03-14T13:53:18;98871.91;;;7.35;81.56
36234;BME280;43467;50.890;5.982;2023-03-14T13:55:44;98870.63;;;7.26;82.40
36234;BME280;43467;50.890;5.982;2023-03-14T13:58:19;98881.16;;;7.26;82.66
36234;BME280;43467;50.890;5.982;2023-03-14T14:00:54;98896.63;;;7.32;82.30
36234;BME280;43467;50.890;5.982;2023-03-14T14:03:20;98896.84;;;7.12;82.70
36234;BME280;43467;50.890;5.982;2023-03-14T14:05:45;98881.72;;;7.00;83.10
36234;BME280;43467;50.890;5.982;2023-03-14T14:08:12;98901.75;;;7.03;82.07
36234;BME280;43467;50.890;5.982;2023-03-14T14:10:37;98916.44;;;7.07;81.84
36234;BME280;43467;50.890;5.982;2023-03-14T14:13:06;98924.50;;;7.04;81.42
36234;BME280;43467;50.890;5.982;2023-03-14T14:15:43;98934.00;;;7.06;81.22
36234;BME280;43467;50.890;5.982;2023-03-14T14:18:12;98930.41;;;6.91;82.10
36234;BME280;43467;50.890;5.982;2023-03-14T14:20:42;98952.81;;;7.16;80.63
36234;BME280;43467;50.890;5.982;2023-03-14T14:23:20;98948.56;;;7.13;82.19
36234;BME280;43467;50.890;5.982;2023-03-14T14:25:51;98945.84;;;7.15;83.65